Time;durP1;ratioP1;P1;durP2;ratioP2;P2;SDS_P1;SDS_P2;PMS_P1;PMS_P2;Temp;Humidity;BMP_temperature;BMP_pressure;BME280_temperature;BME280_humidity;BME280_pressure;Samples;Min_cycle;Max_cycle;Signal;HPM_P1;HPM_P2
2023/09/09 00:01:45;;;;;;;5.50;3.20;;;28.70;50.80;;;;;;5088451;27;45398;-69
2023/09/09 00:04:12;;;;;;;4.63;3.00;;;28.70;50.70;;;;;;5085857;27;46769;-69
2023/09/09 00:06:39;;;;;;;5.95;3.25;;;28.70;50.60;;;;;;5086005;27;45320;-69
2023/09/09 00:09:06;;;;;;;6.78;3.13;;;28.70;50.60;;;;;;5078501;27;45261;-70
2023/09/09 00:11:33;;;;;;;4.43;2.85;;;28.70;50.60;;;;;;5082638;27;45661;-69
2023/09/09 00:14:01;;;;;;;7.03;3.40;;;28.70;50.70;;;;;;5067909;28;46397;-68
2023/09/09 00:16:33;;;;;;;3.40;3.10;;;28.60;50.50;;;;;;5068299;28;45342;-69
2023/09/09 00:19:00;;;;;;;3.83;3.00;;;28.60;50.60;;;;;;5066353;28;45439;-69
2023/09/09 00:21:27;;;;;;;3.97;2.95;;;28.50;50.50;;;;;;5067452;28;45377;-68
2023/09/09 00:23:53;;;;;;;3.53;3.00;;;28.50;50.70;;;;;;5067473;28;45483;-69
2023/09/09 00:26:20;;;;;;;4.05;3.17;;;28.50;50.60;;;;;;5066091;28;45269;-69
2023/09/09 00:28:47;;;;;;;4.43;3.08;;;28.40;50.60;;;;;;5066317;28;45238;-71
2023/09/09 00:31:16;;;;;;;5.55;3.30;;;28.40;50.60;;;;;;5063611;28;45407;-69
2023/09/09 00:33:43;;;;;;;5.35;3.05;;;28.40;50.60;;;;;;5065786;28;45320;-68
2023/09/09 00:36:09;;;;;;;3.20;2.90;;;28.30;50.60;;;;;;5065671;28;45332;-69
2023/09/09 00:38:36;;;;;;;4.93;2.97;;;28.30;50.60;;;;;;5069209;28;45353;-69
2023/09/09 00:41:13;;;;;;;4.13;3.05;;;28.30;50.60;;;;;;5069534;28;45241;-69
2023/09/09 00:43:40;;;;;;;6.50;3.40;;;28.20;50.60;;;;;;5069303;28;46452;-69
2023/09/09 00:46:08;;;;;;;3.92;3.17;;;28.20;50.60;;;;;;5069539;28;45287;-69
2023/09/09 00:48:36;;;;;;;3.38;3.08;;;28.20;50.60;;;;;;5069234;28;45282;-68
2023/09/09 00:51:03;;;;;;;3.45;3.03;;;28.20;50.70;;;;;;5069596;28;45173;-69
2023/09/09 00:53:30;;;;;;;4.20;3.05;;;28.20;50.70;;;;;;5066079;28;45250;-69
2023/09/09 00:55:57;;;;;;;3.45;3.10;;;28.10;50.70;;;;;;5069322;28;45407;-69
2023/09/09 00:58:23;;;;;;;3.53;2.75;;;28.10;50.70;;;;;;5069186;28;45442;-69
2023/09/09 01:00:50;;;;;;;5.95;3.38;;;28.10;50.70;;;;;;5069487;28;45426;-69
2023/09/09 01:03:17;;;;;;;6.65;3.25;;;28.00;50.80;;;;;;5068968;28;46236;-69
2023/09/09 01:05:45;;;;;;;3.58;3.28;;;28.00;50.70;;;;;;5069108;28;45264;-69
2023/09/09 01:08:12;;;;;;;5.22;3.10;;;28.00;50.80;;;;;;5068935;28;45383;-69
2023/09/09 01:10:39;;;;;;;3.92;3.15;;;28.00;50.80;;;;;;5069100;28;45484;-69
2023/09/09 01:13:06;;;;;;;3.28;2.97;;;28.00;50.80;;;;;;5069169;28;45249;-69
2023/09/09 01:15:33;;;;;;;4.38;2.83;;;27.90;50.70;;;;;;5069184;28;45274;-69
2023/09/09 01:18:00;;;;;;;5.15;3.13;;;27.90;50.80;;;;;;5069086;28;45339;-69
2023/09/09 01:20:28;;;;;;;3.33;3.03;;;27.90;50.80;;;;;;5069295;28;45455;-69
2023/09/09 01:22:56;;;;;;;3.78;3.28;;;27.90;50.80;;;;;;5069064;28;46595;-69
2023/09/09 01:25:23;;;;;;;3.30;2.85;;;27.80;50.80;;;;;;5069018;28;45257;-69
2023/09/09 01:27:50;;;;;;;2.90;2.70;;;27.80;50.80;;;;;;5068797;28;45315;-69
2023/09/09 01:30:17;;;;;;;3.78;3.30;;;27.80;50.80;;;;;;5069266;28;45368;-69
2023/09/09 01:32:43;;;;;;;3.60;3.05;;;27.70;50.80;;;;;;5068648;28;46397;-69
2023/09/09 01:35:10;;;;;;;5.53;3.08;;;27.70;50.70;;;;;;5068760;28;45451;-69
2023/09/09 01:37:37;;;;;;;3.88;3.08;;;27.70;50.80;;;;;;5068348;28;45300;-69
2023/09/09 01:40:10;;;;;;;3.53;3.00;;;27.70;50.80;;;;;;5068884;28;45431;-69
2023/09/09 01:42:37;;;;;;;3.03;2.80;;;27.70;50.80;;;;;;5068375;28;45346;-69
2023/09/09 01:45:05;;;;;;;3.33;3.00;;;27.70;51.40;;;;;;5068765;28;45248;-69
2023/09/09 01:47:31;;;;;;;3.08;2.78;;;27.60;50.80;;;;;;5068193;28;45493;-69
2023/09/09 01:49:58;;;;;;;3.05;2.75;;;27.60;50.80;;;;;;5068660;28;45474;-69
2023/09/09 01:52:25;;;;;;;4.05;3.35;;;27.60;50.80;;;;;;5068472;28;45447;-69
2023/09/09 01:54:52;;;;;;;3.60;3.20;;;27.60;50.90;;;;;;5068517;28;45277;-69
2023/09/09 01:57:22;;;;;;;3.00;2.70;;;27.60;51.50;;;;;;5068630;28;45270;-69
2023/09/09 01:59:48;;;;;;;4.07;3.03;;;27.50;50.80;;;;;;5068580;28;45405;-69
2023/09/09 02:02:16;;;;;;;4.72;3.10;;;27.50;50.90;;;;;;5068494;28;46319;-69
2023/09/09 02:04:43;;;;;;;3.13;2.83;;;27.50;50.90;;;;;;5068306;28;45350;-69
2023/09/09 02:07:10;;;;;;;3.33;3.03;;;27.50;50.90;;;;;;5068483;28;45320;-69
2023/09/09 02:09:37;;;;;;;2.85;2.65;;;27.50;50.90;;;;;;5068580;28;45483;-69
2023/09/09 02:12:04;;;;;;;3.22;2.80;;;27.50;51.00;;;;;;5068768;28;45683;-69
2023/09/09 02:14:32;;;;;;;3.42;3.10;;;27.50;50.90;;;;;;5068646;28;45443;-70
2023/09/09 02:16:59;;;;;;;3.45;3.05;;;27.50;51.50;;;;;;5068347;28;45316;-68
2023/09/09 02:19:26;;;;;;;3.03;2.60;;;27.40;50.90;;;;;;5068724;28;45350;-68
2023/09/09 02:21:53;;;;;;;3.47;3.17;;;27.40;50.90;;;;;;5067903;28;46412;-69
2023/09/09 02:24:20;;;;;;;3.15;2.85;;;27.40;51.00;;;;;;5067405;28;45355;-69
2023/09/09 02:26:47;;;;;;;3.88;2.80;;;27.40;51.00;;;;;;5067995;28;45346;-68
2023/09/09 02:29:14;;;;;;;3.25;2.95;;;27.40;51.00;;;;;;5068059;28;45491;-69
2023/09/09 02:31:42;;;;;;;3.67;3.25;;;27.40;51.00;;;;;;5068018;28;45483;-68
2023/09/09 02:34:09;;;;;;;3.35;3.05;;;27.30;51.60;;;;;;5067537;28;45420;-69
2023/09/09 02:36:35;;;;;;;3.22;2.92;;;27.30;51.00;;;;;;5067717;28;45372;-68
2023/09/09 02:39:02;;;;;;;3.33;3.03;;;27.30;51.00;;;;;;5067985;28;45415;-68
2023/09/09 02:41:30;;;;;;;3.70;3.00;;;27.30;51.10;;;;;;5066996;28;46341;-68
2023/09/09 02:43:57;;;;;;;4.05;3.42;;;27.30;51.00;;;;;;5067700;28;45225;-68
2023/09/09 02:46:24;;;;;;;3.20;2.90;;;27.20;51.00;;;;;;5067602;28;45248;-68
2023/09/09 02:48:52;;;;;;;3.28;2.67;;;27.20;51.00;;;;;;5067754;28;45500;-68
2023/09/09 02:51:18;;;;;;;4.22;3.30;;;27.20;51.00;;;;;;5067164;28;46408;-69
2023/09/09 02:53:45;;;;;;;3.17;2.88;;;27.20;51.10;;;;;;5068469;28;45198;-69
2023/09/09 02:56:12;;;;;;;5.85;3.03;;;27.20;51.00;;;;;;5067811;28;45404;-69
2023/09/09 02:58:39;;;;;;;3.15;2.85;;;27.20;51.00;;;;;;5067835;28;45273;-68
2023/09/09 03:01:06;;;;;;;4.80;3.00;;;27.10;51.00;;;;;;5065960;28;45380;-68
2023/09/09 03:03:34;;;;;;;3.30;2.65;;;27.10;51.00;;;;;;5067646;28;45374;-69
2023/09/09 03:06:02;;;;;;;3.28;2.78;;;27.10;51.10;;;;;;5067971;28;45188;-69
2023/09/09 03:08:29;;;;;;;3.42;3.10;;;27.10;51.10;;;;;;5068060;28;45444;-68
2023/09/09 03:10:56;;;;;;;3.05;2.75;;;27.10;51.10;;;;;;5066837;28;45379;-69
2023/09/09 03:13:23;;;;;;;3.90;2.90;;;27.10;51.10;;;;;;5067075;28;45316;-69
2023/09/09 03:15:50;;;;;;;3.35;2.95;;;27.00;51.10;;;;;;5067426;28;45221;-69
2023/09/09 03:18:17;;;;;;;3.47;3.00;;;27.00;51.10;;;;;;5067330;28;45408;-69
2023/09/09 03:20:43;;;;;;;5.40;2.97;;;27.00;51.20;;;;;;5066826;28;46281;-69
2023/09/09 03:23:11;;;;;;;3.22;2.75;;;27.00;51.20;;;;;;5067020;28;45327;-69
2023/09/09 03:25:38;;;;;;;2.85;2.65;;;27.00;51.80;;;;;;5067173;28;45230;-69
2023/09/09 03:28:05;;;;;;;3.13;2.83;;;26.90;51.10;;;;;;5067464;28;45296;-69
2023/09/09 03:30:52;;;;;;;2.70;2.47;;;26.90;51.20;;;;;;5066848;28;45479;-69
2023/09/09 03:33:19;;;;;;;2.92;2.67;;;26.90;51.10;;;;;;5068604;28;45322;-69
2023/09/09 03:35:46;;;;;;;4.20;3.17;;;26.90;51.20;;;;;;5067021;28;45292;-69
2023/09/09 03:38:14;;;;;;;3.67;2.90;;;26.90;51.20;;;;;;5067069;28;45304;-69
2023/09/09 03:40:42;;;;;;;2.70;2.50;;;26.90;51.20;;;;;;5066517;28;46283;-69
2023/09/09 03:43:09;;;;;;;3.28;2.97;;;26.80;51.10;;;;;;5066429;28;45502;-69
2023/09/09 03:45:36;;;;;;;3.25;2.85;;;26.80;51.20;;;;;;5066976;28;45488;-69
2023/09/09 03:48:04;;;;;;;3.40;2.92;;;26.80;51.20;;;;;;5066968;28;45416;-69
2023/09/09 03:50:32;;;;;;;3.40;3.10;;;26.80;51.20;;;;;;5066485;28;45372;-69
2023/09/09 03:52:59;;;;;;;2.90;2.67;;;26.80;51.20;;;;;;5066699;28;45471;-69
2023/09/09 03:55:27;;;;;;;3.72;2.97;;;26.80;51.20;;;;;;5066848;28;45305;-69
2023/09/09 03:57:54;;;;;;;3.03;2.72;;;26.70;51.20;;;;;;5066769;28;45332;-69
2023/09/09 04:00:21;;;;;;;3.25;2.95;;;26.70;51.20;;;;;;5066414;28;46575;-69
2023/09/09 04:02:48;;;;;;;3.22;2.72;;;26.70;51.20;;;;;;5065755;28;45541;-69
2023/09/09 04:05:15;;;;;;;3.38;2.97;;;26.70;51.30;;;;;;5066405;28;45410;-69
2023/09/09 04:07:44;;;;;;;3.00;2.70;;;26.70;51.30;;;;;;5066336;28;45367;-69
2023/09/09 04:10:11;;;;;;;4.47;3.05;;;26.70;51.30;;;;;;5066018;28;46661;-69
2023/09/09 04:12:39;;;;;;;3.40;2.88;;;26.60;51.20;;;;;;5065833;28;45419;-69
2023/09/09 04:15:07;;;;;;;3.40;3.10;;;26.60;51.20;;;;;;5066188;28;45336;-69
2023/09/09 04:17:34;;;;;;;3.95;3.13;;;26.60;51.20;;;;;;5066100;28;45305;-69
2023/09/09 04:20:03;;;;;;;2.97;2.78;;;26.60;51.20;;;;;;5065794;28;47299;-69
2023/09/09 04:22:30;;;;;;;2.80;2.55;;;26.60;51.20;;;;;;5065908;28;45301;-69
2023/09/09 04:24:57;;;;;;;4.32;3.25;;;26.50;51.20;;;;;;5066056;28;45320;-69
2023/09/09 04:27:24;;;;;;;3.28;2.97;;;26.50;51.90;;;;;;5066239;28;45291;-69
2023/09/09 04:29:52;;;;;;;3.00;2.80;;;26.50;51.20;;;;;;5065624;28;46474;-70
2023/09/09 04:32:19;;;;;;;4.00;3.08;;;26.50;51.30;;;;;;5065711;28;45497;-70
2023/09/09 04:34:46;;;;;;;2.85;2.65;;;26.50;51.30;;;;;;5065990;28;45309;-70
2023/09/09 04:37:14;;;;;;;4.13;2.97;;;26.50;51.30;;;;;;5065938;28;45359;-70
2023/09/09 04:39:41;;;;;;;2.70;2.50;;;26.40;51.20;;;;;;5065658;28;45451;-69
2023/09/09 04:42:07;;;;;;;3.00;2.70;;;26.40;51.20;;;;;;5065482;28;45195;-69
2023/09/09 04:44:35;;;;;;;4.22;3.22;;;26.40;51.30;;;;;;5065680;28;45261;-70
2023/09/09 04:47:03;;;;;;;3.00;2.70;;;26.40;51.20;;;;;;5065656;28;45494;-70
2023/09/09 04:49:31;;;;;;;3.05;2.75;;;26.40;51.20;;;;;;5065473;28;45309;-70
2023/09/09 04:51:57;;;;;;;2.90;2.55;;;26.40;51.20;;;;;;5065623;28;45322;-70
2023/09/09 04:54:24;;;;;;;5.28;2.92;;;26.40;51.20;;;;;;5065793;28;45347;-70
2023/09/09 04:56:51;;;;;;;2.92;2.72;;;26.40;51.20;;;;;;5065798;28;45474;-69
2023/09/09 04:59:18;;;;;;;3.08;2.78;;;26.40;51.20;;;;;;5065476;28;45608;-70
2023/09/09 05:01:44;;;;;;;3.13;2.88;;;26.40;51.20;;;;;;5065336;28;45290;-70
2023/09/09 05:04:13;;;;;;;3.10;2.80;;;26.40;51.20;;;;;;5065705;28;45370;-70
2023/09/09 05:06:40;;;;;;;4.82;3.10;;;26.40;51.20;;;;;;5065671;28;45363;-70
2023/09/09 05:09:07;;;;;;;3.35;2.80;;;26.30;51.10;;;;;;5065377;28;45301;-70
2023/09/09 05:11:34;;;;;;;3.35;2.75;;;26.30;51.20;;;;;;5065328;28;45336;-70
2023/09/09 05:14:00;;;;;;;3.08;2.83;;;26.30;51.20;;;;;;5065513;28;45320;-70
2023/09/09 05:16:28;;;;;;;3.10;2.83;;;26.30;51.20;;;;;;5065304;28;45479;-69
2023/09/09 05:18:55;;;;;;;3.15;2.70;;;26.30;51.20;;;;;;5065251;28;45312;-69
2023/09/09 05:21:23;;;;;;;3.20;2.90;;;26.30;51.20;;;;;;5065107;28;45451;-69
2023/09/09 05:23:51;;;;;;;3.55;2.97;;;26.30;51.10;;;;;;5067212;28;45257;-69
2023/09/09 05:26:17;;;;;;;3.20;2.90;;;26.30;51.30;;;;;;5069088;28;45169;-69
2023/09/09 05:28:44;;;;;;;4.68;3.05;;;26.20;51.20;;;;;;5068446;28;46372;-69
2023/09/09 05:31:12;;;;;;;3.28;2.90;;;26.20;51.20;;;;;;5068508;28;45456;-69
2023/09/09 05:33:39;;;;;;;2.63;2.42;;;26.20;51.20;;;;;;5068570;28;45309;-69
2023/09/09 05:36:06;;;;;;;2.90;2.70;;;26.20;51.20;;;;;;5068556;28;45284;-69
2023/09/09 05:38:35;;;;;;;3.30;3.00;;;26.20;51.20;;;;;;5068175;28;46356;-69
2023/09/09 05:41:02;;;;;;;3.67;2.90;;;26.20;51.20;;;;;;5068187;28;45395;-69
2023/09/09 05:43:29;;;;;;;3.88;3.00;;;26.20;51.30;;;;;;5068723;28;45315;-69
2023/09/09 05:45:56;;;;;;;3.40;3.00;;;26.20;51.20;;;;;;5068791;28;45258;-69
2023/09/09 05:48:23;;;;;;;3.10;2.80;;;26.20;51.20;;;;;;5068258;28;45604;-69
2023/09/09 05:50:50;;;;;;;3.42;2.85;;;26.20;51.20;;;;;;5068231;28;45371;-69
2023/09/09 05:53:17;;;;;;;3.40;2.90;;;26.20;51.20;;;;;;5068459;28;45387;-69
2023/09/09 05:55:45;;;;;;;5.53;3.50;;;26.20;51.20;;;;;;5068378;28;45180;-69
2023/09/09 05:58:12;;;;;;;3.35;2.70;;;26.20;51.10;;;;;;5068022;28;46677;-69
2023/09/09 06:00:39;;;;;;;3.38;2.88;;;26.20;51.20;;;;;;5068166;28;45392;-69
2023/09/09 06:03:05;;;;;;;3.03;2.72;;;26.20;51.20;;;;;;5068304;28;45364;-69
2023/09/09 06:05:32;;;;;;;4.85;2.80;;;26.20;51.20;;;;;;5068340;28;45372;-69
2023/09/09 06:07:59;;;;;;;3.60;3.28;;;26.20;51.20;;;;;;5067818;28;46402;-69
2023/09/09 06:10:26;;;;;;;3.50;2.95;;;26.20;51.20;;;;;;5067953;28;45361;-69
2023/09/09 06:12:54;;;;;;;2.70;2.50;;;26.10;51.20;;;;;;5068043;28;45223;-69
2023/09/09 06:15:21;;;;;;;2.83;2.63;;;26.20;51.20;;;;;;5068220;28;45379;-69
2023/09/09 06:17:49;;;;;;;3.30;2.97;;;26.10;51.20;;;;;;5068094;28;46431;-69
2023/09/09 06:20:16;;;;;;;2.92;2.72;;;26.20;51.20;;;;;;5067509;28;45303;-69
2023/09/09 06:22:43;;;;;;;3.72;2.80;;;26.20;51.20;;;;;;5068122;28;45249;-69
2023/09/09 06:25:10;;;;;;;4.47;2.75;;;26.20;51.20;;;;;;5068002;28;45399;-69
2023/09/09 06:27:36;;;;;;;3.20;2.90;;;26.10;51.20;;;;;;5067622;28;45357;-69
2023/09/09 06:30:06;;;;;;;2.92;2.72;;;26.10;51.10;;;;;;5067783;28;45336;-69
2023/09/09 06:32:33;;;;;;;3.30;2.78;;;26.20;51.20;;;;;;5067622;28;45300;-69
2023/09/09 06:34:59;;;;;;;4.20;2.83;;;26.20;51.20;;;;;;5066561;28;45280;-69
2023/09/09 06:37:26;;;;;;;2.95;2.63;;;26.20;51.10;;;;;;5067459;28;46383;-69
2023/09/09 06:39:53;;;;;;;3.50;2.85;;;26.20;51.20;;;;;;5067418;28;45403;-69
2023/09/09 06:42:20;;;;;;;3.22;2.92;;;26.20;51.20;;;;;;5067196;28;45412;-69
2023/09/09 06:44:47;;;;;;;3.95;3.00;;;26.20;51.10;;;;;;5067708;28;45277;-69
2023/09/09 06:47:15;;;;;;;2.60;2.40;;;26.20;51.10;;;;;;5067209;28;46369;-69
2023/09/09 06:49:42;;;;;;;3.30;3.00;;;26.20;51.10;;;;;;5067263;28;45393;-69
2023/09/09 06:52:08;;;;;;;3.10;2.80;;;26.20;51.10;;;;;;5067670;28;45454;-69
2023/09/09 06:54:35;;;;;;;2.75;2.50;;;26.20;51.10;;;;;;5067486;28;45303;-69
2023/09/09 06:57:02;;;;;;;2.97;2.78;;;26.20;51.10;;;;;;5067010;28;45312;-69
2023/09/09 06:59:30;;;;;;;3.05;2.72;;;26.20;51.10;;;;;;5066927;28;45333;-69
2023/09/09 07:01:57;;;;;;;2.92;2.70;;;26.20;51.10;;;;;;5067109;28;45233;-69
2023/09/09 07:04:25;;;;;;;3.25;2.95;;;26.20;51.70;;;;;;5067224;28;45304;-69
2023/09/09 07:06:52;;;;;;;2.92;2.70;;;26.20;51.10;;;;;;5066638;28;45257;-69
2023/09/09 07:09:20;;;;;;;2.63;2.42;;;26.20;51.00;;;;;;5066816;28;45476;-69
2023/09/09 07:11:47;;;;;;;3.10;2.80;;;26.20;51.10;;;;;;5067100;28;45364;-69
2023/09/09 07:14:14;;;;;;;3.35;3.05;;;26.30;51.10;;;;;;5066948;28;45475;-69
2023/09/09 07:16:40;;;;;;;3.08;2.88;;;26.30;51.10;;;;;;5066687;28;45416;-69
2023/09/09 07:19:07;;;;;;;3.45;2.70;;;26.30;51.10;;;;;;5066765;28;45261;-69
2023/09/09 07:21:35;;;;;;;2.78;2.50;;;26.30;51.10;;;;;;5066669;28;45417;-68
2023/09/09 07:24:02;;;;;;;3.10;2.80;;;26.30;51.10;;;;;;5066857;28;45379;-68
2023/09/09 07:26:29;;;;;;;2.88;2.50;;;26.30;51.10;;;;;;5066468;28;45551;-69
2023/09/09 07:28:57;;;;;;;2.90;2.70;;;26.30;51.00;;;;;;5066413;28;45358;-69
2023/09/09 07:31:23;;;;;;;7.35;3.70;;;26.30;51.00;;;;;;5066544;28;45296;-68
2023/09/09 07:33:53;;;;;;;3.45;2.97;;;26.30;51.20;;;;;;5066549;28;45273;-69
2023/09/09 07:36:20;;;;;;;3.10;2.80;;;26.30;51.50;;;;;;5066410;28;46748;-69
2023/09/09 07:38:48;;;;;;;3.67;2.88;;;26.30;51.30;;;;;;5066266;28;45327;-69
2023/09/09 07:41:15;;;;;;;3.63;2.78;;;26.40;51.40;;;;;;5066203;28;45459;-69
2023/09/09 07:43:43;;;;;;;3.20;2.90;;;26.40;51.30;;;;;;5066411;28;45361;-69
2023/09/09 07:46:10;;;;;;;3.60;3.00;;;26.40;51.20;;;;;;5065699;28;45410;-69
2023/09/09 07:48:37;;;;;;;3.80;2.88;;;26.40;51.10;;;;;;5066106;28;45274;-69
2023/09/09 07:51:04;;;;;;;3.05;2.80;;;26.40;51.70;;;;;;5066167;28;45174;-68
2023/09/09 07:53:31;;;;;;;4.65;3.28;;;26.40;51.70;;;;;;5066534;28;45531;-69
2023/09/09 07:55:59;;;;;;;3.28;2.85;;;26.50;51.10;;;;;;5065955;28;45311;-69
2023/09/09 07:58:25;;;;;;;3.65;2.70;;;26.50;51.10;;;;;;5066007;28;45299;-69
2023/09/09 08:00:58;;;;;;;3.30;3.00;;;26.50;51.00;;;;;;5066209;28;45320;-69
2023/09/09 08:03:25;;;;;;;3.03;2.78;;;26.50;51.00;;;;;;5066079;28;45497;-69
2023/09/09 08:05:54;;;;;;;3.40;3.10;;;26.50;51.00;;;;;;5065915;28;45454;-70
2023/09/09 08:08:21;;;;;;;3.33;3.00;;;26.60;51.00;;;;;;5065804;28;45329;-69
2023/09/09 08:10:49;;;;;;;3.15;2.83;;;26.60;51.00;;;;;;5066163;28;45322;-68
2023/09/09 08:13:17;;;;;;;2.88;2.67;;;26.60;50.90;;;;;;5066181;28;45268;-69
2023/09/09 08:15:44;;;;;;;3.33;2.90;;;26.60;50.90;;;;;;5065687;28;46808;-69
2023/09/09 08:18:11;;;;;;;3.33;3.00;;;26.60;50.90;;;;;;5065767;28;45343;-69
2023/09/09 08:20:38;;;;;;;3.63;2.67;;;26.60;50.80;;;;;;5072474;28;45364;-69
2023/09/09 08:23:05;;;;;;;3.40;3.10;;;26.70;51.00;;;;;;5086364;27;45411;-71
2023/09/09 08:25:32;;;;;;;3.03;2.72;;;26.70;50.90;;;;;;5085820;27;45367;-66
2023/09/09 08:28:01;;;;;;;3.63;3.33;;;26.80;51.00;;;;;;5085656;27;45500;-68
2023/09/09 08:30:29;;;;;;;2.83;2.63;;;26.70;51.00;;;;;;5085786;27;45428;-69
2023/09/09 08:32:56;;;;;;;3.45;2.80;;;26.80;51.10;;;;;;5085897;27;45295;-67
2023/09/09 08:35:23;;;;;;;8.48;3.20;;;26.80;51.30;;;;;;5085581;27;46337;-68
2023/09/09 08:37:50;;;;;;;5.32;3.25;;;26.80;51.20;;;;;;5085477;27;45332;-68
2023/09/09 08:40:17;;;;;;;6.30;3.28;;;26.90;51.40;;;;;;5085668;27;45315;-68
2023/09/09 08:42:52;;;;;;;3.08;2.78;;;27.00;51.40;;;;;;5085705;27;45371;-67
2023/09/09 08:45:23;;;;;;;10.52;5.55;;;27.00;51.90;;;;;;5085360;27;46407;-67
2023/09/09 08:47:51;;;;;;;8.65;6.95;;;27.00;51.30;;;;;;5085277;27;45315;-67
2023/09/09 08:50:18;;;;;;;15.07;4.07;;;27.10;51.50;;;;;;5085529;27;45383;-67
2023/09/09 08:52:45;;;;;;;4.45;3.60;;;27.10;51.50;;;;;;5085895;27;45350;-67
2023/09/09 08:55:12;;;;;;;4.85;3.63;;;27.20;51.20;;;;;;5085390;27;46643;-67
2023/09/09 08:57:39;;;;;;;6.95;3.75;;;27.20;52.20;;;;;;5085616;27;45312;-71
2023/09/09 09:00:07;;;;;;;10.00;8.05;;;27.30;51.50;;;;;;5088961;27;45323;-66
2023/09/09 09:02:34;;;;;;;16.52;11.68;;;27.30;51.70;;;;;;5089127;27;45394;-69
2023/09/09 09:05:02;;;;;;;18.90;15.65;;;27.30;51.50;;;;;;5088680;27;45312;-66
2023/09/09 09:07:29;;;;;;;21.35;7.82;;;27.40;51.40;;;;;;5088637;27;45335;-67
2023/09/09 09:09:56;;;;;;;13.15;9.98;;;27.40;51.30;;;;;;5088770;27;45333;-69
2023/09/09 09:12:23;;;;;;;12.40;9.30;;;27.50;51.50;;;;;;5089027;27;45367;-65
2023/09/09 09:14:49;;;;;;;16.23;14.63;;;27.50;52.20;;;;;;5088640;27;46921;-69
2023/09/09 09:17:17;;;;;;;12.48;9.63;;;27.50;51.90;;;;;;5088948;27;45337;-67
2023/09/09 09:19:43;;;;;;;16.75;9.68;;;27.60;52.50;;;;;;5089007;27;45320;-66
2023/09/09 09:22:13;;;;;;;29.42;9.07;;;27.70;52.80;;;;;;5088768;27;45330;-65
2023/09/09 09:24:43;;;;;;;16.38;8.02;;;27.70;53.10;;;;;;5088692;27;46374;-68
2023/09/09 09:27:10;;;;;;;9.68;6.70;;;27.80;52.30;;;;;;5088838;27;45205;-69
2023/09/09 09:29:40;;;;;;;7.53;6.50;;;27.80;51.70;;;;;;5088376;27;45269;-69
2023/09/09 09:32:07;;;;;;;11.90;6.18;;;27.90;51.40;;;;;;5087940;27;45392;-69
2023/09/09 09:34:35;;;;;;;15.05;7.88;;;28.00;51.50;;;;;;5085152;27;46887;-67
2023/09/09 09:37:04;;;;;;;22.88;20.48;;;28.00;52.30;;;;;;5087004;28;45385;-68
2023/09/09 09:39:35;;;;;;;22.45;20.10;;;28.10;52.20;;;;;;5088656;27;45469;-68
2023/09/09 09:42:02;;;;;;;17.25;13.52;;;28.20;52.20;;;;;;5076892;28;45384;-68
2023/09/09 09:44:28;;;;;;;14.82;10.30;;;28.20;51.70;;;;;;5088255;27;45623;-68
2023/09/09 09:47:02;;;;;;;14.98;9.13;;;28.30;51.90;;;;;;5087916;27;45268;-68
2023/09/09 09:49:36;;;;;;;8.80;7.93;;;28.30;51.70;;;;;;5088547;27;45339;-66
2023/09/09 09:52:03;;;;;;;12.35;9.60;;;28.40;51.90;;;;;;5088443;27;45311;-69
2023/09/09 09:54:31;;;;;;;22.30;13.70;;;28.40;53.00;;;;;;5087992;27;47248;-68
2023/09/09 09:57:01;;;;;;;19.70;11.98;;;28.40;52.60;;;;;;5088195;27;45263;-67
2023/09/09 09:59:29;;;;;;;10.73;7.55;;;28.50;51.70;;;;;;5086383;27;45523;-68
2023/09/09 10:01:56;;;;;;;14.57;6.93;;;28.50;51.70;;;;;;5085013;27;45480;-68
2023/09/09 10:04:23;;;;;;;5.85;5.20;;;28.60;51.60;;;;;;5085033;27;46556;-68
2023/09/09 10:06:50;;;;;;;8.70;6.45;;;28.70;53.00;;;;;;5085366;27;45324;-70
2023/09/09 10:09:20;;;;;;;7.10;5.97;;;28.80;51.60;;;;;;5086746;27;45436;-67
2023/09/09 10:11:51;;;;;;;9.05;5.60;;;28.90;51.20;;;;;;5088030;27;45399;-69
2023/09/09 10:14:20;;;;;;;6.20;4.63;;;28.90;51.00;;;;;;5086471;27;45415;-69
2023/09/09 10:16:46;;;;;;;6.22;4.78;;;28.90;50.70;;;;;;5087017;27;45494;-69
2023/09/09 10:19:13;;;;;;;5.65;4.80;;;29.00;50.80;;;;;;5088012;27;45383;-70
2023/09/09 10:21:40;;;;;;;6.85;5.10;;;29.10;50.80;;;;;;5087948;27;45477;-69
2023/09/09 10:24:07;;;;;;;8.73;5.20;;;29.20;50.20;;;;;;5087417;27;45335;-70
2023/09/09 10:26:34;;;;;;;9.80;6.03;;;29.20;50.20;;;;;;5087204;27;45430;-69
2023/09/09 10:29:01;;;;;;;8.50;5.93;;;29.30;50.40;;;;;;5087753;27;45379;-68
2023/09/09 10:31:30;;;;;;;6.70;4.55;;;29.30;50.30;;;;;;5088020;27;45370;-68
2023/09/09 10:33:57;;;;;;;5.03;4.47;;;29.40;50.90;;;;;;5087078;27;46367;-67
2023/09/09 10:36:24;;;;;;;8.70;4.45;;;29.60;50.10;;;;;;5087607;27;45349;-67
2023/09/09 10:38:51;;;;;;;5.95;4.60;;;29.60;49.30;;;;;;5087247;27;45469;-68
2023/09/09 10:41:18;;;;;;;4.60;4.20;;;29.80;49.40;;;;;;5087578;27;45465;-69
2023/09/09 10:43:45;;;;;;;9.80;5.43;;;29.90;49.00;;;;;;5087061;27;45307;-70
2023/09/09 10:46:11;;;;;;;6.03;4.65;;;29.90;48.80;;;;;;5087342;27;46088;-70
2023/09/09 10:48:40;;;;;;;5.10;4.60;;;30.00;49.20;;;;;;5087709;27;45333;-69
2023/09/09 10:51:07;;;;;;;6.57;3.97;;;29.90;48.80;;;;;;5086881;27;45485;-69
2023/09/09 10:53:33;;;;;;;5.07;3.95;;;30.00;49.30;;;;;;5087181;27;46505;-69
2023/09/09 10:56:01;;;;;;;6.10;4.40;;;30.10;48.60;;;;;;5086088;27;45378;-69
2023/09/09 10:58:32;;;;;;;6.82;4.50;;;30.10;48.30;;;;;;5083173;27;45469;-69
2023/09/09 11:00:59;;;;;;;6.57;4.25;;;30.10;48.00;;;;;;5087313;27;45380;-69
2023/09/09 11:03:30;;;;;;;6.90;3.83;;;30.20;47.80;;;;;;5086016;27;45273;-69
2023/09/09 11:06:03;;;;;;;7.53;3.95;;;30.20;47.30;;;;;;5066696;28;45386;-69
2023/09/09 11:08:35;;;;;;;8.50;4.10;;;30.20;47.30;;;;;;5076651;28;45231;-69
2023/09/09 11:11:13;;;;;;;4.18;3.78;;;30.20;47.30;;;;;;5086588;27;45434;-69
2023/09/09 11:13:50;;;;;;;4.35;3.55;;;30.20;46.60;;;;;;5086571;27;45396;-69
2023/09/09 11:16:33;;;;;;;4.28;3.80;;;30.20;45.80;;;;;;5086129;27;45424;-69
2023/09/09 11:19:02;;;;;;;6.45;3.55;;;30.20;47.00;;;;;;5084280;28;45423;-70
2023/09/09 11:21:32;;;;;;;4.18;3.38;;;30.30;45.60;;;;;;5085565;27;45478;-69
2023/09/09 11:23:59;;;;;;;8.18;3.78;;;30.30;45.50;;;;;;5086060;27;45424;-70
2023/09/09 11:26:26;;;;;;;3.95;3.58;;;30.30;45.30;;;;;;5086051;27;45316;-69
2023/09/09 11:28:52;;;;;;;4.80;4.00;;;30.30;45.70;;;;;;5086153;27;45463;-69
2023/09/09 11:31:19;;;;;;;4.30;3.30;;;30.50;46.80;;;;;;5086839;27;45316;-69
2023/09/09 11:33:46;;;;;;;7.68;3.90;;;30.60;45.80;;;;;;5085460;27;46758;-70
2023/09/09 11:36:16;;;;;;;4.10;3.70;;;30.60;46.00;;;;;;5085128;27;45466;-70
2023/09/09 11:38:44;;;;;;;5.05;3.83;;;30.70;46.70;;;;;;5084534;28;45269;-70
2023/09/09 11:41:18;;;;;;;5.28;3.80;;;30.80;45.60;;;;;;5086474;27;45561;-70
2023/09/09 11:43:45;;;;;;;5.70;3.40;;;30.80;45.40;;;;;;5085714;27;46411;-69
2023/09/09 11:46:12;;;;;;;6.22;3.83;;;30.90;45.20;;;;;;5086090;27;45375;-70
2023/09/09 11:48:39;;;;;;;5.95;3.88;;;31.00;45.60;;;;;;5085921;27;45316;-70
2023/09/09 11:51:06;;;;;;;4.15;3.67;;;31.00;44.70;;;;;;5085429;27;45423;-70
2023/09/09 11:53:33;;;;;;;5.35;3.92;;;31.00;44.80;;;;;;5085303;27;46394;-71
2023/09/09 11:56:03;;;;;;;4.38;3.85;;;31.00;45.10;;;;;;5087512;27;45439;-70
2023/09/09 11:58:38;;;;;;;4.90;3.70;;;31.10;45.80;;;;;;5087038;27;45358;-70
2023/09/09 12:01:05;;;;;;;9.07;4.40;;;31.30;45.40;;;;;;5085940;27;45384;-70
2023/09/09 12:03:32;;;;;;;5.95;3.83;;;31.30;45.60;;;;;;5085890;27;45430;-70
2023/09/09 12:05:59;;;;;;;6.63;4.32;;;31.40;45.70;;;;;;5083398;27;45318;-70
2023/09/09 12:08:27;;;;;;;8.10;5.80;;;31.40;45.30;;;;;;5085203;27;45514;-70
2023/09/09 12:10:54;;;;;;;5.15;4.63;;;31.40;45.50;;;;;;5085305;27;45420;-70
2023/09/09 12:13:22;;;;;;;4.60;3.95;;;31.40;45.90;;;;;;5082959;28;45357;-70
2023/09/09 12:15:49;;;;;;;5.75;4.30;;;31.50;45.10;;;;;;5085084;27;45413;-70
2023/09/09 12:18:16;;;;;;;7.53;4.05;;;31.50;44.80;;;;;;5085161;27;45313;-71
2023/09/09 12:21:07;;;;;;;5.70;3.92;;;31.60;44.00;;;;;;5086023;27;45281;-70
2023/09/09 12:23:34;;;;;;;4.38;3.80;;;31.60;45.90;;;;;;5081742;28;46406;-71
2023/09/09 12:26:10;;;;;;;5.88;4.05;;;31.70;44.10;;;;;;5085268;27;45521;-71
2023/09/09 12:28:39;;;;;;;8.27;4.25;;;31.70;43.90;;;;;;5079799;28;45282;-70
2023/09/09 12:31:06;;;;;;;7.68;3.60;;;31.80;43.90;;;;;;5086110;27;45408;-70
2023/09/09 12:33:40;;;;;;;5.72;4.15;;;31.90;45.00;;;;;;5085019;27;46723;-70
2023/09/09 12:36:15;;;;;;;6.15;4.93;;;32.10;44.80;;;;;;5084930;27;45352;-70
2023/09/09 12:38:42;;;;;;;5.00;4.50;;;32.20;43.90;;;;;;5064879;27;45399;-70
2023/09/09 12:41:10;;;;;;;5.75;4.40;;;32.30;43.20;;;;;;5083996;28;45276;-70
2023/09/09 12:43:38;;;;;;;6.55;4.32;;;32.30;43.10;;;;;;5085008;27;47769;-69
2023/09/09 12:46:06;;;;;;;4.75;4.13;;;32.40;42.90;;;;;;5085180;27;45358;-69
2023/09/09 12:48:33;;;;;;;5.30;3.97;;;32.40;42.50;;;;;;5078964;28;45503;-70